createdAt,value
2022-10-11T00:02:52.829Z,99.9
2022-10-11T00:04:52.750Z,99.9
2022-10-11T00:05:54.415Z,99.9
2022-10-11T00:07:54.333Z,99.9
2022-10-11T00:11:54.145Z,99.9
2022-10-11T00:13:58.328Z,99.9
2022-10-11T00:15:57.444Z,99.9
2022-10-11T00:17:58.690Z,99.9
2022-10-11T00:19:57.213Z,99.9
2022-10-11T00:21:57.090Z,99.9
2022-10-11T00:23:56.994Z,99.9
2022-10-11T00:25:56.898Z,99.9
2022-10-11T00:28:00.332Z,99.9
2022-10-11T00:30:00.190Z,99.9
2022-10-11T00:32:00.100Z,99.9
2022-10-11T00:33:59.986Z,99.9
2022-10-11T00:35:59.876Z,99.9
2022-10-11T00:37:59.790Z,99.9
2022-10-11T00:39:59.708Z,99.9
2022-10-11T00:42:03.074Z,99.9
2022-10-11T00:44:02.966Z,99.9
2022-10-11T00:46:03.220Z,99.9
2022-10-11T00:48:02.762Z,99.9
2022-10-11T00:50:02.659Z,99.9
2022-10-11T01:02:28.015Z,99.9
2022-10-11T01:04:27.944Z,99.9
2022-10-11T01:06:27.841Z,99.9
2022-10-11T01:08:31.221Z,99.9
2022-10-11T01:10:31.118Z,99.9
2022-10-11T01:12:31.068Z,99.9
2022-10-11T01:14:32.525Z,99.9
2022-10-11T01:16:32.381Z,99.9
2022-10-11T01:18:32.290Z,99.9
2022-10-11T01:20:32.209Z,99.9
2022-10-11T01:22:35.610Z,99.9
2022-10-11T01:24:35.539Z,99.9
2022-10-11T01:26:35.441Z,99.9
2022-10-11T01:28:35.399Z,99.9
2022-10-11T01:30:35.270Z,99.9
2022-10-11T01:32:35.171Z,99.9
2022-10-11T01:34:35.111Z,99.9
2022-10-11T01:36:38.513Z,99.9
2022-10-11T01:38:38.414Z,99.9
2022-10-11T01:40:38.316Z,99.9
2022-10-11T01:42:38.246Z,99.9
2022-10-11T01:44:38.173Z,99.9
2022-10-11T01:46:38.089Z,99.9
2022-10-11T01:48:38.001Z,99.9
2022-10-11T01:50:41.385Z,99.9
2022-10-11T01:52:41.297Z,99.9
2022-10-11T01:55:07.661Z,99.9
2022-10-11T01:55:42.932Z,99.9
2022-10-11T01:57:42.841Z,99.9
2022-10-11T01:59:42.747Z,99.9
2022-10-11T02:01:42.720Z,99.9
2022-10-11T02:03:46.053Z,99.9
2022-10-11T02:05:45.970Z,99.9
2022-10-11T02:07:45.848Z,99.9
2022-10-11T02:09:45.754Z,99.9
2022-10-11T02:11:45.657Z,99.9
2022-10-11T02:13:45.582Z,99.9
2022-10-11T02:15:45.502Z,99.9
2022-10-11T02:17:48.927Z,99.9
2022-10-11T02:19:48.839Z,99.9
2022-10-11T02:21:48.777Z,99.9
2022-10-11T02:23:48.660Z,99.9
2022-10-11T02:25:48.580Z,99.9
2022-10-11T02:27:48.485Z,99.9
2022-10-11T02:29:48.395Z,99.9
2022-10-11T02:31:51.913Z,99.9
2022-10-11T02:33:51.702Z,99.9
2022-10-11T02:35:51.593Z,99.9
2022-10-11T02:37:51.481Z,99.9
2022-10-11T02:39:51.404Z,99.9
2022-10-11T02:41:51.314Z,99.9
2022-10-11T02:43:51.210Z,99.9
2022-10-11T02:45:54.607Z,99.9
2022-10-11T02:47:54.535Z,99.9
2022-10-11T02:49:54.427Z,99.9
2022-10-11T02:50:56.105Z,99.9
2022-10-11T02:52:56.011Z,99.9
2022-10-11T02:54:55.921Z,99.9
2022-10-11T02:56:55.852Z,99.9
2022-10-11T02:58:59.258Z,99.9
2022-10-11T03:00:59.175Z,99.9
2022-10-11T03:02:59.070Z,99.9
2022-10-11T03:04:58.956Z,99.9
2022-10-11T03:06:58.773Z,99.9
2022-10-11T03:08:58.687Z,99.9
2022-10-11T03:10:58.584Z,99.9
2022-10-11T03:13:01.977Z,99.9
2022-10-11T03:17:23.680Z,99.9
2022-10-11T03:19:01.676Z,99.9
2022-10-11T03:21:01.587Z,99.9
2022-10-11T03:23:01.474Z,99.9
2022-10-11T03:25:04.478Z,99.9
2022-10-11T03:27:04.757Z,99.9
2022-10-11T03:31:04.500Z,99.9
2022-10-11T03:33:04.507Z,99.9
2022-10-11T03:35:04.295Z,99.9
2022-10-11T03:43:07.336Z,99.9
2022-10-11T03:45:07.150Z,99.9
2022-10-11T03:46:09.259Z,99.9
2022-10-11T03:48:08.730Z,99.9
2022-10-11T03:50:08.639Z,99.9
2022-10-11T03:52:08.550Z,99.9
2022-10-11T03:54:11.931Z,99.9
2022-10-11T03:56:12.181Z,99.9
2022-10-11T03:58:11.627Z,99.9
2022-10-11T04:00:11.529Z,99.9
2022-10-11T04:02:11.457Z,99.9
2022-10-11T04:04:11.515Z,99.9
2022-10-11T04:06:11.236Z,99.9
2022-10-11T04:08:14.631Z,99.9
2022-10-11T04:10:14.541Z,99.9
2022-10-11T04:14:14.371Z,99.9
2022-10-11T04:16:14.279Z,99.9
2022-10-11T04:18:14.168Z,99.9
2022-10-11T04:20:14.059Z,99.9
2022-10-11T04:22:17.473Z,99.9
2022-10-11T04:24:17.398Z,99.9
2022-10-11T04:26:17.306Z,99.9
2022-10-11T04:28:17.234Z,99.9
2022-10-11T04:30:17.090Z,99.9
2022-10-11T04:34:16.937Z,99.9
2022-10-11T04:36:20.339Z,99.9
2022-10-11T04:38:20.218Z,99.9
2022-10-11T04:40:20.151Z,99.9
2022-10-11T04:42:36.060Z,99.9
2022-10-11T04:44:35.993Z,99.9
2022-10-11T04:46:35.914Z,99.9
2022-10-11T04:48:39.297Z,99.9
2022-10-11T04:50:39.209Z,99.9
2022-10-11T04:52:39.115Z,99.9
2022-10-11T04:54:39.021Z,99.9
2022-10-11T04:56:38.935Z,99.9
2022-10-11T04:58:38.870Z,99.9
2022-10-11T05:00:38.769Z,99.9
2022-10-11T05:02:42.153Z,99.9
2022-10-11T05:04:42.040Z,99.9
2022-10-11T05:06:41.961Z,99.9
2022-10-11T05:08:41.888Z,99.9
2022-10-11T05:10:41.767Z,99.9
2022-10-11T05:12:41.663Z,99.9
2022-10-11T05:14:41.563Z,99.9
2022-10-11T05:16:44.983Z,99.9
2022-10-11T05:24:44.633Z,99.9
2022-10-11T05:26:44.526Z,99.9
2022-10-11T05:28:44.544Z,99.9
2022-10-11T05:30:47.847Z,99.9
2022-10-11T05:32:47.728Z,99.9
2022-10-11T05:34:47.651Z,99.9
2022-10-11T05:35:49.362Z,99.9
2022-10-11T05:37:49.296Z,99.9
2022-10-11T05:39:49.199Z,99.9
2022-10-11T05:41:49.138Z,99.9
2022-10-11T05:43:52.517Z,99.9
2022-10-11T05:47:52.353Z,99.9
2022-10-11T05:49:52.278Z,99.9
2022-10-11T05:51:52.201Z,99.9
2022-10-11T05:53:52.094Z,99.9
2022-10-11T05:55:52.013Z,99.9
2022-10-11T05:57:55.413Z,99.9
2022-10-11T05:59:55.311Z,99.9
2022-10-11T06:01:55.296Z,99.9
2022-10-11T06:03:55.157Z,99.9
2022-10-11T06:05:57.176Z,99.9
2022-10-11T06:07:55.019Z,99.9
2022-10-11T06:09:54.901Z,99.9
2022-10-11T06:11:58.315Z,99.9
2022-10-11T06:13:58.229Z,99.9
2022-10-11T06:15:58.144Z,99.9
2022-10-11T06:17:58.037Z,99.9
2022-10-11T06:19:58.000Z,99.9
2022-10-11T06:21:57.881Z,99.9
2022-10-11T06:24:01.410Z,99.9
2022-10-11T06:26:01.234Z,99.9
2022-10-11T06:28:01.110Z,99.9
2022-10-11T06:30:01.019Z,99.9
2022-10-11T06:33:04.926Z,99.9
2022-10-11T06:35:02.552Z,99.9
2022-10-11T06:37:02.481Z,99.9
2022-10-11T06:39:05.860Z,99.9
2022-10-11T06:41:05.794Z,99.9
2022-10-11T06:43:05.716Z,99.9
2022-10-11T06:45:05.610Z,99.9
2022-10-11T06:47:05.521Z,99.9
2022-10-11T06:49:05.466Z,99.9
2022-10-11T06:51:05.363Z,99.9
2022-10-11T06:53:08.746Z,99.9
2022-10-11T06:55:08.661Z,99.9
2022-10-11T06:57:08.749Z,99.9
2022-10-11T06:59:08.452Z,99.9
2022-10-11T07:01:10.045Z,99.9
2022-10-11T07:03:09.818Z,99.9
2022-10-11T07:05:09.705Z,99.9
2022-10-11T07:07:13.104Z,99.9
2022-10-11T07:09:12.966Z,99.9
2022-10-11T07:11:12.778Z,99.9
2022-10-11T07:13:17.032Z,99.9
2022-10-11T07:15:12.538Z,99.9
2022-10-11T07:17:12.445Z,99.9
2022-10-11T07:19:12.381Z,99.9
2022-10-11T07:21:15.717Z,99.9
2022-10-11T07:23:15.554Z,99.9
2022-10-11T07:25:15.380Z,99.9
2022-10-11T07:26:17.083Z,99.9
2022-10-11T07:28:17.044Z,99.9
2022-10-11T07:30:16.757Z,99.9
2022-10-11T07:32:16.649Z,99.9
2022-10-11T07:34:19.999Z,99.9
2022-10-11T07:36:19.805Z,99.9
2022-10-11T07:38:19.686Z,99.9
2022-10-11T07:40:19.571Z,99.9
2022-10-11T07:42:19.451Z,99.9
2022-10-11T07:44:19.323Z,99.9
2022-10-11T07:46:19.208Z,99.9
2022-10-11T07:48:22.466Z,99.9
2022-10-11T07:50:22.345Z,99.9
2022-10-11T07:52:22.223Z,99.9
2022-10-11T07:54:22.079Z,99.9
2022-10-11T07:56:21.863Z,99.9
2022-10-11T07:58:21.734Z,99.9
2022-10-11T08:00:21.608Z,99.9
2022-10-11T08:02:24.786Z,99.9
2022-10-11T08:04:24.666Z,99.9
2022-10-11T08:06:24.505Z,99.9
2022-10-11T08:12:23.885Z,99.9
2022-10-11T08:14:23.644Z,99.9
2022-10-11T08:16:26.901Z,99.9
2022-10-11T08:18:26.650Z,99.9
2022-10-11T08:20:26.417Z,99.9
2022-10-11T08:22:47.866Z,99.9
2022-10-11T08:24:47.631Z,99.9
2022-10-11T08:28:50.568Z,99.9
2022-10-11T08:30:50.276Z,99.9
2022-10-11T08:32:50.047Z,99.9
2022-10-11T08:34:49.763Z,99.9
2022-10-11T08:38:49.298Z,99.9
2022-10-11T08:40:49.149Z,99.9
2022-10-11T08:42:52.255Z,99.9
2022-10-11T08:46:51.772Z,99.9
2022-10-11T08:48:51.496Z,99.9
2022-10-11T08:50:51.240Z,99.9
2022-10-11T08:52:50.999Z,99.9
2022-10-11T08:54:50.730Z,99.9
2022-10-11T08:56:53.877Z,99.9
2022-10-11T08:58:53.611Z,99.9
2022-10-11T09:00:53.350Z,99.9
2022-10-11T09:03:08.039Z,99.9
2022-10-11T09:04:52.821Z,99.9
2022-10-11T09:06:52.550Z,99.9
2022-10-11T09:08:52.364Z,99.9
2022-10-11T09:10:55.391Z,99.9
2022-10-11T09:12:55.125Z,99.9
2022-10-11T09:14:54.862Z,99.9
2022-10-11T09:17:56.110Z,99.9
2022-10-11T09:19:55.823Z,99.9
2022-10-11T09:21:55.557Z,99.9
2022-10-11T09:23:58.649Z,99.9
2022-10-11T09:25:58.375Z,99.9
2022-10-11T09:28:02.946Z,99.9
2022-10-11T09:29:57.759Z,99.9
2022-10-11T09:31:57.511Z,99.9
2022-10-11T09:33:57.167Z,99.9
2022-10-11T09:35:56.904Z,99.9
2022-10-11T09:37:59.999Z,99.9
2022-10-11T09:39:59.666Z,99.9
2022-10-11T09:41:59.348Z,99.9
2022-10-11T09:43:59.038Z,99.9
2022-10-11T09:45:58.743Z,99.9
2022-10-11T09:47:58.384Z,94.6
2022-10-11T09:49:58.028Z,85.3
2022-10-11T09:52:01.071Z,76
2022-10-11T09:54:00.694Z,75.8
2022-10-11T09:56:00.254Z,68.7
2022-10-11T09:57:59.884Z,68.4
2022-10-11T10:03:58.553Z,65.6
2022-10-11T10:06:01.560Z,66.9
2022-10-11T10:08:04.346Z,66.8
2022-10-11T10:10:00.473Z,67.1
2022-10-11T10:11:01.943Z,66.2
2022-10-11T10:13:01.417Z,65.9
2022-10-11T10:15:00.892Z,64.6
2022-10-11T10:17:00.363Z,64.6
2022-10-11T10:19:03.234Z,63.8
2022-10-11T10:25:01.200Z,62.8
2022-10-11T10:28:59.924Z,62.9
2022-10-11T10:30:59.061Z,62.8
2022-10-11T10:33:01.705Z,62.7
2022-10-11T10:35:01.050Z,62.3
2022-10-11T10:37:00.307Z,62.7
2022-10-11T10:38:59.575Z,63.9
2022-10-11T10:40:58.832Z,63.7
2022-10-11T10:42:58.090Z,63
2022-10-11T10:44:57.323Z,60.8
2022-10-11T10:46:59.929Z,59.8
2022-10-11T10:49:34.418Z,59.3
2022-10-11T10:50:58.373Z,58.8
2022-10-11T10:52:57.561Z,59
2022-10-11T10:56:55.961Z,59.4
2022-10-11T10:58:56.167Z,59.6
2022-10-11T11:00:57.694Z,59.5
2022-10-11T11:02:56.952Z,59.6
2022-10-11T11:04:56.095Z,59.8
2022-10-11T11:05:57.325Z,59.7
2022-10-11T11:07:56.511Z,59.7
2022-10-11T11:09:55.660Z,59
2022-10-11T11:11:54.839Z,58.7
2022-10-11T11:13:57.339Z,58.1
2022-10-11T11:15:56.489Z,58.5
2022-10-11T11:17:55.635Z,58.1
2022-10-11T11:19:54.823Z,58.3
2022-10-11T11:23:53.138Z,58.6
2022-10-11T11:25:52.278Z,60
2022-10-11T11:27:54.785Z,69.2
2022-10-11T11:29:55.645Z,69.4
2022-10-11T11:31:54.233Z,69.8
2022-10-11T11:33:52.355Z,81.3
2022-10-11T11:35:55.171Z,69.6
2022-10-11T11:37:56.035Z,64.6
2022-10-11T11:39:50.010Z,61.9
2022-10-11T11:41:52.594Z,59.2
2022-10-11T11:43:51.793Z,57.4
2022-10-11T11:45:51.025Z,56.9
2022-10-11T11:47:50.221Z,56.7
2022-10-11T11:49:49.420Z,64.3
2022-10-11T11:51:48.651Z,67
2022-10-11T11:53:47.862Z,63.3
2022-10-11T11:55:50.434Z,63.1
2022-10-11T11:57:49.639Z,64.5
2022-10-11T11:59:48.863Z,73
2022-10-11T12:02:03.776Z,72.5
2022-10-11T12:04:02.950Z,71.8
2022-10-11T12:06:02.196Z,64.3
2022-10-11T12:08:04.787Z,61.5
2022-10-11T12:10:04.040Z,59.7
2022-10-11T12:12:03.311Z,59.3
2022-10-11T12:14:02.508Z,58.2
2022-10-11T12:16:01.746Z,57.6
2022-10-11T12:18:00.973Z,57.3
2022-10-11T12:20:00.222Z,56.7
2022-10-11T12:22:02.771Z,56.2
2022-10-11T12:24:01.968Z,56.2
2022-10-11T12:26:01.139Z,56
2022-10-11T12:28:00.353Z,56.3
2022-10-11T12:29:59.557Z,59.6
2022-10-11T12:31:58.778Z,60.2
2022-10-11T12:33:57.914Z,60
2022-10-11T12:36:02.785Z,58.4
2022-10-11T12:37:59.644Z,58.2
2022-10-11T12:39:58.826Z,57.9
2022-10-11T12:42:00.570Z,57.7
2022-10-11T12:43:57.218Z,57.6
2022-10-11T12:45:57.920Z,57.2
2022-10-11T12:47:57.239Z,56.6
2022-10-11T12:49:59.629Z,55.1
2022-10-11T12:51:58.789Z,54.8
2022-10-11T12:54:24.898Z,54.7
2022-10-11T12:54:59.229Z,54.6
2022-10-11T12:56:58.415Z,54.2
2022-10-11T12:58:57.613Z,54.1
2022-10-11T13:02:59.300Z,52.7
2022-10-11T13:06:57.646Z,52.1
2022-10-11T13:08:56.812Z,52.7
2022-10-11T13:10:55.967Z,56.2
2022-10-11T13:12:55.133Z,59.7
2022-10-11T13:14:54.576Z,66.7
2022-10-11T13:16:57.149Z,67.6
2022-10-11T13:18:56.305Z,68.4
2022-10-11T13:20:55.519Z,70.5
2022-10-11T13:24:53.996Z,74
2022-10-11T13:26:53.235Z,74.7
2022-10-11T13:28:52.531Z,76.3
2022-10-11T13:34:54.048Z,77.8
2022-10-11T13:36:53.923Z,77.8
2022-10-11T13:38:53.363Z,78.8
2022-10-11T13:40:52.787Z,79.2
2022-10-11T13:42:52.204Z,79.2
2022-10-11T13:44:55.117Z,81.4
2022-10-11T13:46:54.593Z,80.5
2022-10-11T13:48:54.037Z,81.1
2022-10-11T13:49:55.476Z,81.5
2022-10-11T13:51:54.966Z,81.6
2022-10-11T13:53:54.459Z,71.6
2022-10-11T13:55:53.926Z,60.8
2022-10-11T13:57:56.853Z,54.9
2022-10-11T13:59:56.330Z,54.6
2022-10-11T14:01:55.835Z,51.2
2022-10-11T14:03:55.286Z,49.1
2022-10-11T14:05:54.754Z,47.9
2022-10-11T14:07:54.194Z,47.6
2022-10-11T14:09:53.654Z,47.3
2022-10-11T14:11:56.565Z,46.1
2022-10-11T14:13:56.009Z,46.1
2022-10-11T14:17:54.889Z,47.1
2022-10-11T14:21:53.729Z,47.9
2022-10-11T14:25:55.782Z,48.9
2022-10-11T14:27:55.114Z,48.6
2022-10-11T14:35:52.393Z,46.7
2022-10-11T14:37:51.670Z,46.3
2022-10-11T14:39:54.313Z,46.4
2022-10-11T14:41:53.597Z,47
2022-10-11T14:43:52.865Z,48
2022-10-11T14:44:55.177Z,51.6
2022-10-11T14:46:54.725Z,51.7
2022-10-11T14:48:56.065Z,51.5
2022-10-11T14:54:54.095Z,50.6
2022-10-11T14:56:53.374Z,50.5
2022-10-11T14:58:52.652Z,50.2
2022-10-11T15:00:51.925Z,50.4
2022-10-11T15:02:51.179Z,50.3
2022-10-11T15:04:50.463Z,50.2
2022-10-11T15:12:50.924Z,50.6
2022-10-11T15:14:50.197Z,50.2
2022-10-11T15:16:49.495Z,50.2
2022-10-11T15:18:48.872Z,50.1
2022-10-11T15:20:51.594Z,51.3
2022-10-11T15:22:50.913Z,51.8
2022-10-11T15:24:51.792Z,52.2
2022-10-11T15:26:49.481Z,51.7
2022-10-11T15:38:49.159Z,59.8
2022-10-11T15:41:04.362Z,63
2022-10-11T15:43:03.777Z,64.4
2022-10-11T15:45:03.213Z,64.5
2022-10-11T15:47:05.981Z,65.4
2022-10-11T15:49:06.806Z,65.5
2022-10-11T15:51:04.901Z,65.8
2022-10-11T15:53:04.356Z,66.3
2022-10-11T15:55:03.815Z,66.8
2022-10-11T15:57:03.292Z,73
2022-10-11T15:59:02.783Z,73.7
2022-10-11T16:03:05.149Z,80.4
2022-10-11T16:09:03.666Z,99.6
2022-10-11T16:11:03.168Z,99.8
2022-10-11T16:13:02.700Z,99.8
2022-10-11T16:15:05.659Z,99.8
2022-10-11T16:17:05.156Z,99.8
2022-10-11T16:19:04.705Z,99.8
2022-10-11T16:21:04.622Z,99.9
2022-10-11T16:23:03.833Z,99.9
2022-10-11T16:25:03.396Z,99.9
2022-10-11T16:27:02.945Z,99.9
2022-10-11T16:29:05.947Z,99.9
2022-10-11T16:31:05.503Z,99.9
2022-10-11T16:33:05.119Z,99.9
2022-10-11T16:34:06.602Z,99.9
2022-10-11T16:36:06.423Z,99.9
2022-10-11T16:38:05.818Z,99.9
2022-10-11T16:40:05.410Z,99.9
2022-10-11T16:42:08.460Z,99.9
2022-10-11T16:44:08.075Z,99.9
2022-10-11T16:46:08.072Z,99.9
2022-10-11T16:48:07.320Z,99.9
2022-10-11T16:50:06.971Z,99.9
2022-10-11T16:52:06.595Z,99.9
2022-10-11T16:54:06.261Z,99.9
2022-10-11T16:56:09.283Z,99.9
2022-10-11T16:58:08.955Z,99.9
2022-10-11T17:02:08.264Z,99.9
2022-10-11T17:04:07.956Z,99.9
2022-10-11T17:06:08.280Z,99.9
2022-10-11T17:08:07.304Z,99.9
2022-10-11T17:12:10.043Z,99.9
2022-10-11T17:14:09.746Z,99.9
2022-10-11T17:16:09.703Z,99.9
2022-10-11T17:18:09.111Z,99.9
2022-10-11T17:20:08.776Z,99.9
2022-10-11T17:22:08.461Z,99.9
2022-10-11T17:24:11.550Z,99.9
2022-10-11T17:26:11.764Z,99.9
2022-10-11T17:28:10.946Z,99.9
2022-10-11T17:29:12.426Z,99.9
2022-10-11T17:31:12.084Z,99.9
2022-10-11T17:33:11.758Z,99.9
2022-10-11T17:37:14.508Z,99.9
2022-10-11T17:39:14.173Z,99.9
2022-10-11T17:41:13.852Z,99.9
2022-10-11T17:43:13.519Z,99.9
2022-10-11T17:45:13.198Z,99.9
2022-10-11T17:49:12.541Z,99.9
2022-10-11T17:53:15.257Z,99.9
2022-10-11T17:55:14.986Z,99.9
2022-10-11T17:57:14.600Z,99.9
2022-10-11T17:59:14.275Z,99.9
2022-10-11T18:03:13.627Z,99.9
2022-10-11T18:05:16.706Z,99.9
2022-10-11T18:07:16.367Z,99.9
2022-10-11T18:09:16.031Z,99.9
2022-10-11T18:11:15.675Z,99.9
2022-10-11T18:19:17.813Z,99.9
2022-10-11T18:23:17.159Z,99.9
2022-10-11T18:24:18.702Z,99.9
2022-10-11T18:26:18.360Z,99.9
2022-10-11T18:28:18.052Z,99.9
2022-10-11T18:30:19.269Z,99.9
2022-10-11T18:32:22.312Z,99.9
2022-10-11T18:34:21.998Z,99.9
2022-10-11T18:36:21.679Z,99.9
2022-10-11T18:38:21.371Z,99.9
2022-10-11T18:42:20.734Z,99.9
2022-10-11T18:44:20.407Z,99.9
2022-10-11T18:48:23.208Z,99.9
2022-10-11T18:50:22.917Z,99.9
2022-10-11T18:52:22.615Z,99.9
2022-10-11T18:54:22.298Z,99.9
2022-10-11T18:56:21.992Z,99.9
2022-10-11T18:58:21.724Z,99.9
2022-10-11T19:02:24.567Z,99.9
2022-10-11T19:04:24.298Z,99.9
2022-10-11T19:06:23.984Z,99.9
2022-10-11T19:08:23.722Z,99.9
2022-10-11T19:10:23.457Z,99.9
2022-10-11T19:12:23.255Z,99.9
2022-10-11T19:14:26.327Z,99.9
2022-10-11T19:16:26.014Z,99.9
2022-10-11T19:20:47.702Z,99.9
2022-10-11T19:24:47.162Z,99.9
2022-10-11T19:26:50.278Z,99.9
2022-10-11T19:28:50.061Z,99.9
2022-10-11T19:32:49.497Z,99.9
2022-10-11T19:34:49.236Z,99.9
2022-10-11T19:36:49.003Z,99.9
2022-10-11T19:38:48.739Z,99.9
2022-10-11T19:40:51.971Z,99.9
2022-10-11T19:42:51.726Z,99.9
2022-10-11T19:44:51.462Z,99.9
2022-10-11T19:48:50.994Z,99.9
2022-10-11T19:50:50.861Z,99.9
2022-10-11T19:52:50.586Z,99.9
2022-10-11T19:54:53.820Z,99.9
2022-10-11T19:56:53.583Z,99.9
2022-10-11T19:58:53.365Z,99.9
2022-10-11T20:00:53.248Z,99.9
2022-10-11T20:02:52.974Z,99.9
2022-10-11T20:04:53.318Z,99.9
2022-10-11T20:06:52.673Z,99.9
2022-10-11T20:13:57.269Z,99.9
2022-10-11T20:15:57.113Z,99.9
2022-10-11T20:17:56.850Z,99.9
2022-10-11T20:19:56.652Z,99.9
2022-10-11T20:21:59.988Z,99.9
2022-10-11T20:23:59.783Z,99.9
2022-10-11T20:25:59.648Z,99.9
2022-10-11T20:27:59.494Z,99.9
2022-10-11T20:29:59.369Z,99.9
2022-10-11T20:31:59.217Z,99.9
2022-10-11T20:33:59.018Z,99.9
2022-10-11T20:36:02.376Z,99.9
2022-10-11T20:38:02.144Z,99.9
2022-10-11T20:42:01.853Z,99.9
2022-10-11T20:56:03.933Z,99.9
2022-10-11T21:00:03.687Z,99.9
2022-10-11T21:02:03.482Z,99.9
2022-10-11T21:04:06.903Z,99.9
2022-10-11T21:06:06.784Z,99.9
2022-10-11T21:08:06.652Z,99.9
2022-10-11T21:09:10.225Z,99.9
2022-10-11T21:11:08.232Z,99.9
2022-10-11T21:13:08.099Z,99.9
2022-10-11T21:15:07.987Z,99.9
2022-10-11T21:17:11.371Z,99.9
2022-10-11T21:19:11.259Z,99.9
2022-10-11T21:21:11.134Z,99.9
2022-10-11T21:23:11.003Z,99.9
2022-10-11T21:25:10.912Z,99.9
2022-10-11T21:27:10.767Z,99.9
2022-10-11T21:29:10.653Z,99.9
2022-10-11T21:31:13.935Z,99.9
2022-10-11T21:33:13.832Z,99.9
2022-10-11T21:35:13.725Z,99.9
2022-10-11T21:37:13.587Z,99.9
2022-10-11T21:39:13.468Z,99.9
2022-10-11T21:41:13.356Z,99.9
2022-10-11T21:43:15.933Z,99.9
2022-10-11T21:45:16.619Z,99.9
2022-10-11T21:47:16.701Z,99.9
2022-10-11T21:49:16.391Z,99.9
2022-10-11T21:51:16.298Z,99.9
2022-10-11T21:53:16.199Z,99.9
2022-10-11T21:55:16.076Z,99.9
2022-10-11T21:57:15.972Z,99.9
2022-10-11T21:59:19.346Z,99.9
2022-10-11T22:01:19.302Z,99.9
2022-10-11T22:03:19.042Z,99.9
2022-10-11T22:04:20.748Z,99.9
2022-10-11T22:06:20.656Z,99.9
2022-10-11T22:08:20.563Z,99.9
2022-10-11T22:10:20.457Z,99.9
2022-10-11T22:12:23.863Z,99.9
2022-10-11T22:14:23.724Z,99.9
2022-10-11T22:16:23.628Z,99.9
2022-10-11T22:18:23.560Z,99.9
2022-10-11T22:20:23.429Z,99.9
2022-10-11T22:22:23.312Z,99.9
2022-10-11T22:24:23.205Z,99.9
2022-10-11T22:26:26.493Z,99.9
2022-10-11T22:28:26.418Z,99.9
2022-10-11T22:30:26.246Z,99.9
2022-10-11T22:32:26.072Z,99.9
2022-10-11T22:40:29.196Z,99.9
2022-10-11T22:42:29.073Z,99.9
2022-10-11T22:48:28.794Z,99.9
2022-10-11T22:50:31.515Z,99.9
2022-10-11T22:52:28.619Z,99.9
2022-10-11T22:54:31.994Z,99.9
2022-10-11T22:56:31.914Z,99.9
2022-10-11T22:58:31.794Z,99.9
2022-10-11T23:00:53.842Z,99.9
2022-10-11T23:02:53.737Z,99.9
2022-10-11T23:04:53.648Z,99.9
2022-10-11T23:07:01.201Z,99.9
2022-10-11T23:08:56.966Z,99.9
2022-10-11T23:10:56.793Z,99.9
2022-10-11T23:14:56.610Z,99.9
2022-10-11T23:16:56.517Z,99.9
2022-10-11T23:18:56.432Z,99.9
2022-10-11T23:20:59.863Z,99.9
2022-10-11T23:22:59.726Z,99.9
2022-10-11T23:24:59.636Z,99.9
2022-10-11T23:26:59.534Z,99.9
2022-10-11T23:30:59.363Z,99.9
2022-10-11T23:32:59.235Z,99.9
2022-10-11T23:35:02.687Z,99.9
2022-10-11T23:39:02.465Z,99.9
2022-10-11T23:41:02.385Z,99.9
2022-10-11T23:43:02.303Z,99.9
2022-10-11T23:45:02.226Z,99.9
2022-10-11T23:49:05.589Z,99.9
2022-10-11T23:51:05.477Z,99.9
2022-10-11T23:54:07.111Z,99.9
2022-10-11T23:58:06.940Z,99.9
